KLWV/LWV METAR and TAF weather

Enter ICAO airport designator
Station Type Date Time Source
KLWV METAR 2022/01/23 12:53 UTC NOAA

KLWV 231253Z AUTO 22011KT 10SM BKN070 OVC095 00/M06 A2993 RMK AO2 SLP138 T00001056


Station Type Date Time Source
KLWV Decoded METAR 2022/01/23 12:53 UTC NOAA

LAWRENCEVILLE-VINCENNES INTERNATIONAL , IL, United States (KLWV) 38-46N 87-36W 131M
Jan 23, 2022 - 07:53 AM EST / 2022.01.23 1253 UTC
Wind: from the SW (220 degrees) at 13 MPH (11 KT):0
Visibility: 10 mile(s):0
Sky conditions: overcast
Temperature: 32.0 F (0.0 C)
Windchill: 23 F (-5 C):1
Dew Point: 21.9 F (-5.6 C)
Relative Humidity: 65%
Pressure (altimeter): 29.93 in. Hg (1013 hPa)
ob: KLWV 231253Z AUTO 22011KT 10SM BKN070 OVC095 00/M06 A2993 RMK AO2 SLP138 T00001056
cycle: 13

Station Type Date Time Source
KLWV TAF UTC NOAA

Error!

Example: see airport list